createdAt,value
2022-10-28T00:01:12.463Z,11.93
2022-10-28T00:03:46.142Z,11.84
2022-10-28T00:06:34.509Z,11.90
2022-10-28T00:09:02.303Z,11.89
2022-10-28T00:11:32.496Z,11.86
2022-10-28T00:14:01.179Z,11.88
2022-10-28T00:16:30.440Z,11.80
2022-10-28T00:18:59.267Z,11.83
2022-10-28T00:21:30.463Z,11.79
2022-10-28T00:23:57.732Z,11.78
2022-10-28T00:26:27.804Z,11.74
2022-10-28T00:29:00.115Z,11.66
2022-10-28T00:31:28.487Z,11.59
2022-10-28T00:33:55.775Z,11.53
2022-10-28T00:36:32.159Z,11.58
2022-10-28T00:38:59.916Z,11.55
2022-10-28T00:41:36.808Z,11.64
2022-10-28T00:44:41.120Z,11.61
2022-10-28T00:47:21.449Z,11.56
2022-10-28T00:49:51.206Z,11.53
2022-10-28T00:52:22.767Z,11.56
2022-10-28T00:54:51.781Z,11.53
2022-10-28T00:57:24.367Z,11.45
2022-10-28T00:59:53.242Z,11.36
2022-10-28T01:02:20.694Z,11.40
2022-10-28T01:04:47.837Z,11.40
2022-10-28T01:07:17.109Z,11.43
2022-10-28T01:09:44.602Z,11.26
2022-10-28T01:12:33.395Z,11.37
2022-10-28T01:15:18.710Z,11.41
2022-10-28T01:18:35.575Z,11.42
2022-10-28T01:22:03.340Z,11.37
2022-10-28T01:25:05.406Z,11.37
2022-10-28T01:27:55.290Z,11.36
2022-10-28T01:30:29.201Z,11.37
2022-10-28T01:33:19.579Z,11.34
2022-10-28T01:35:55.549Z,11.33
2022-10-28T01:38:30.791Z,11.30
2022-10-28T01:41:09.595Z,11.26
2022-10-28T01:43:51.920Z,11.23
2022-10-28T01:46:48.153Z,11.22
2022-10-28T01:49:35.171Z,11.17
2022-10-28T01:52:05.696Z,11.15
2022-10-28T01:54:35.305Z,11.15
2022-10-28T01:57:05.629Z,11.13
2022-10-28T01:59:36.674Z,11.14
2022-10-28T02:02:04.222Z,11.10
2022-10-28T02:04:31.692Z,10.97
2022-10-28T02:07:03.140Z,11.13
2022-10-28T02:09:47.982Z,11.11
2022-10-28T02:12:36.045Z,11.02
2022-10-28T02:15:45.387Z,11.09
2022-10-28T02:18:40.696Z,11.01
2022-10-28T02:21:29.179Z,11.05
2022-10-28T02:24:11.555Z,10.99
2022-10-28T02:26:47.405Z,10.95
2022-10-28T02:29:23.056Z,10.92
2022-10-28T02:31:59.041Z,10.96
2022-10-28T02:34:32.095Z,10.98
2022-10-28T02:37:03.861Z,10.99
2022-10-28T02:39:37.544Z,10.94
2022-10-28T02:42:11.066Z,10.99
2022-10-28T02:44:50.300Z,10.95
2022-10-28T02:47:23.800Z,10.98
2022-10-28T02:49:58.729Z,10.95
2022-10-28T02:52:30.387Z,10.99
2022-10-28T02:55:00.800Z,10.95
2022-10-28T02:57:42.098Z,10.96
2022-10-28T03:00:15.080Z,10.84
2022-10-28T03:02:42.846Z,10.84
2022-10-28T03:05:10.714Z,10.92
2022-10-28T03:07:38.468Z,10.84
2022-10-28T03:10:09.129Z,10.86
2022-10-28T03:12:36.774Z,10.80
2022-10-28T03:15:04.922Z,10.76
2022-10-28T03:17:32.506Z,10.75
2022-10-28T03:20:00.078Z,10.70
2022-10-28T03:22:27.629Z,10.67
2022-10-28T03:24:55.283Z,10.58
2022-10-28T03:27:28.985Z,10.66
2022-10-28T03:29:56.346Z,10.57
2022-10-28T03:32:25.649Z,10.66
2022-10-28T03:34:53.107Z,10.64
2022-10-28T03:37:23.532Z,10.62
2022-10-28T03:39:50.869Z,10.64
2022-10-28T03:42:18.448Z,10.66
2022-10-28T03:44:45.806Z,10.49
2022-10-28T03:47:13.258Z,10.63
2022-10-28T03:49:40.719Z,10.63
2022-10-28T03:52:10.810Z,10.62
2022-10-28T03:54:38.396Z,10.61
2022-10-28T03:57:05.648Z,10.63
2022-10-28T03:59:33.210Z,10.51
2022-10-28T04:02:08.943Z,10.55
2022-10-28T04:04:37.237Z,10.60
2022-10-28T04:07:04.592Z,10.53
2022-10-28T04:09:32.063Z,10.55
2022-10-28T04:11:59.436Z,10.52
2022-10-28T04:14:27.105Z,10.53
2022-10-28T04:16:54.938Z,10.51
2022-10-28T04:19:24.414Z,10.50
2022-10-28T04:21:52.278Z,10.50
2022-10-28T04:24:20.042Z,10.51
2022-10-28T04:26:47.704Z,10.51
2022-10-28T04:29:15.195Z,10.51
2022-10-28T04:31:42.667Z,10.42
2022-10-28T04:34:10.194Z,10.39
2022-10-28T04:36:37.815Z,10.41
2022-10-28T04:39:05.504Z,10.38
2022-10-28T04:41:35.655Z,10.37
2022-10-28T04:44:03.491Z,10.27
2022-10-28T04:46:33.538Z,10.37
2022-10-28T04:49:05.502Z,10.35
2022-10-28T04:51:34.319Z,10.36
2022-10-28T04:54:02.368Z,10.38
2022-10-28T04:56:32.965Z,10.42
2022-10-28T04:59:00.457Z,10.36
2022-10-28T05:01:30.891Z,10.31
2022-10-28T05:03:58.475Z,10.33
2022-10-28T05:06:26.510Z,10.31
2022-10-28T05:08:54.142Z,10.24
2022-10-28T05:11:24.707Z,10.19
2022-10-28T05:13:55.952Z,10.20
2022-10-28T05:16:25.001Z,10.25
2022-10-28T05:18:55.645Z,10.23
2022-10-28T05:21:23.345Z,10.05
2022-10-28T05:23:51.275Z,10.17
2022-10-28T05:26:18.734Z,10.19
2022-10-28T05:28:50.742Z,10.31
2022-10-28T05:31:18.908Z,10.31
2022-10-28T05:33:47.252Z,10.13
2022-10-28T05:36:15.836Z,10.27
2022-10-28T05:38:45.981Z,10.07
2022-10-28T05:41:14.363Z,10.11
2022-10-28T05:43:42.537Z,10.11
2022-10-28T05:46:13.854Z,10.16
2022-10-28T05:48:41.519Z,9.97
2022-10-28T05:51:09.515Z,10.12
2022-10-28T05:53:42.912Z,10.05
2022-10-28T05:56:11.363Z,10.00
2022-10-28T05:58:42.098Z,9.95
2022-10-28T06:01:10.941Z,9.99
2022-10-28T06:03:38.412Z,9.95
2022-10-28T06:06:12.260Z,9.93
2022-10-28T06:08:46.677Z,10.11
2022-10-28T06:11:13.722Z,9.88
2022-10-28T06:13:41.691Z,9.83
2022-10-28T06:16:09.971Z,9.94
2022-10-28T06:18:37.738Z,10.27
2022-10-28T06:21:07.262Z,10.23
2022-10-28T06:23:34.569Z,10.19
2022-10-28T06:26:03.803Z,10.32
2022-10-28T06:28:31.268Z,10.35
2022-10-28T06:31:02.596Z,10.32
2022-10-28T06:33:29.809Z,10.38
2022-10-28T06:35:56.849Z,10.40
2022-10-28T06:38:24.266Z,10.43
2022-10-28T06:40:52.501Z,10.46
2022-10-28T06:43:19.342Z,10.38
2022-10-28T06:45:46.809Z,10.46
2022-10-28T06:48:15.019Z,10.48
2022-10-28T06:50:41.620Z,10.48
2022-10-28T06:53:09.151Z,10.43
2022-10-28T06:55:35.732Z,10.52
2022-10-28T06:58:03.395Z,10.56
2022-10-28T07:03:03.488Z,10.57
2022-10-28T07:05:30.062Z,10.63
2022-10-28T07:07:56.944Z,10.64
2022-10-28T07:10:23.570Z,10.65
2022-10-28T07:12:52.780Z,10.79
2022-10-28T07:15:19.783Z,10.86
2022-10-28T07:17:52.801Z,10.92
2022-10-28T07:20:19.325Z,10.88
2022-10-28T07:22:45.885Z,10.98
2022-10-28T07:25:12.452Z,11.05
2022-10-28T07:27:39.080Z,11.03
2022-10-28T07:30:06.173Z,11.10
2022-10-28T07:32:33.483Z,11.23
2022-10-28T07:35:00.091Z,11.27
2022-10-28T07:37:27.011Z,11.33
2022-10-28T07:39:53.611Z,11.44
2022-10-28T07:42:20.120Z,11.49
2022-10-28T07:44:46.619Z,11.48
2022-10-28T07:47:13.152Z,11.49
2022-10-28T07:49:39.694Z,11.64
2022-10-28T07:52:06.156Z,11.68
2022-10-28T07:54:32.746Z,11.78
2022-10-28T07:56:59.300Z,11.87
2022-10-28T07:59:26.920Z,12.02
2022-10-28T08:01:54.446Z,12.18
2022-10-28T08:04:21.151Z,12.25
2022-10-28T08:06:47.746Z,12.38
2022-10-28T08:09:14.312Z,12.59
2022-10-28T08:11:40.908Z,12.66
2022-10-28T08:14:07.465Z,12.85
2022-10-28T08:16:34.024Z,13.01
2022-10-28T08:19:02.942Z,13.06
2022-10-28T08:21:33.318Z,13.30
2022-10-28T08:23:59.872Z,13.38
2022-10-28T08:26:26.502Z,13.47
2022-10-28T08:28:53.026Z,13.64
2022-10-28T08:31:19.544Z,13.69
2022-10-28T08:33:46.280Z,13.88
2022-10-28T08:36:15.085Z,14.03
2022-10-28T08:38:46.209Z,14.08
2022-10-28T08:41:20.673Z,14.24
2022-10-28T08:43:59.067Z,14.32
2022-10-28T08:46:44.646Z,14.40
2022-10-28T08:49:18.550Z,14.41
2022-10-28T08:52:03.037Z,14.54
2022-10-28T08:54:50.400Z,14.56
2022-10-28T08:57:21.504Z,14.73
2022-10-28T08:59:52.021Z,14.75
2022-10-28T09:02:22.440Z,14.87
2022-10-28T09:05:05.798Z,14.91
2022-10-28T09:07:36.000Z,14.97
2022-10-28T09:10:05.496Z,15.05
2022-10-28T09:12:49.331Z,15.14
2022-10-28T09:15:32.638Z,15.21
2022-10-28T09:18:25.671Z,15.28
2022-10-28T09:20:55.145Z,15.34
2022-10-28T09:23:32.240Z,15.42
2022-10-28T09:26:28.390Z,15.50
2022-10-28T09:29:21.531Z,15.52
2022-10-28T09:31:52.499Z,15.64
2022-10-28T09:34:33.883Z,15.64
2022-10-28T09:37:11.077Z,15.70
2022-10-28T09:39:43.700Z,15.83
2022-10-28T09:42:18.298Z,15.86
2022-10-28T09:44:53.344Z,16.04
2022-10-28T09:47:27.482Z,16.15
2022-10-28T09:49:58.068Z,16.24
2022-10-28T09:52:36.104Z,16.33
2022-10-28T09:55:15.841Z,16.34
2022-10-28T09:57:43.799Z,16.46
2022-10-28T10:00:13.056Z,16.58
2022-10-28T10:02:40.381Z,16.58
2022-10-28T10:05:18.265Z,16.80
2022-10-28T10:07:51.090Z,16.90
2022-10-28T10:10:27.739Z,16.98
2022-10-28T10:12:59.335Z,17.08
2022-10-28T10:15:31.287Z,17.16
2022-10-28T10:18:03.857Z,17.24
2022-10-28T10:20:47.403Z,17.41
2022-10-28T10:23:32.467Z,17.48
2022-10-28T10:26:12.298Z,17.57
2022-10-28T10:28:48.305Z,17.58
2022-10-28T10:31:25.558Z,17.62
2022-10-28T10:33:55.148Z,17.71
2022-10-28T10:36:28.195Z,17.75
2022-10-28T10:38:56.933Z,17.91
2022-10-28T10:41:41.887Z,17.96
2022-10-28T10:44:28.673Z,18.10
2022-10-28T10:46:55.099Z,18.18
2022-10-28T10:49:21.640Z,18.31
2022-10-28T10:51:59.355Z,18.44
2022-10-28T10:54:29.513Z,18.59
2022-10-28T10:57:08.609Z,18.63
2022-10-28T10:59:37.761Z,18.62
2022-10-28T11:02:17.086Z,18.71
2022-10-28T11:04:51.875Z,18.81
2022-10-28T11:07:18.422Z,18.87
2022-10-28T11:09:48.938Z,18.92
2022-10-28T11:12:31.866Z,19.00
2022-10-28T11:15:05.021Z,19.00
2022-10-28T11:17:33.872Z,19.00
2022-10-28T11:20:22.852Z,19.08
2022-10-28T11:23:03.147Z,19.16
2022-10-28T11:25:40.642Z,19.18
2022-10-28T11:28:13.056Z,19.32
2022-10-28T11:31:15.278Z,19.41
2022-10-28T11:34:00.445Z,19.48
2022-10-28T11:36:45.387Z,19.52
2022-10-28T11:39:20.322Z,19.60
2022-10-28T11:41:49.734Z,19.65
2022-10-28T11:44:41.597Z,19.66
2022-10-28T11:47:14.559Z,19.73
2022-10-28T11:50:02.378Z,19.78
2022-10-28T11:52:31.885Z,19.79
2022-10-28T11:55:29.508Z,19.84
2022-10-28T11:58:17.820Z,19.89
2022-10-28T12:00:55.304Z,19.92
2022-10-28T12:03:42.537Z,20.00
2022-10-28T12:06:24.140Z,19.99
2022-10-28T12:08:59.589Z,20.08
2022-10-28T12:14:38.818Z,20.23
2022-10-28T12:17:17.887Z,20.30
2022-10-28T12:20:02.690Z,20.43
2022-10-28T12:22:33.575Z,20.42
2022-10-28T12:25:07.272Z,20.53
2022-10-28T12:27:39.882Z,20.49
2022-10-28T12:30:16.248Z,20.49
2022-10-28T12:32:44.458Z,20.56
2022-10-28T12:35:34.456Z,20.60
2022-10-28T12:38:06.107Z,20.64
2022-10-28T12:40:44.643Z,20.63
2022-10-28T12:43:19.459Z,20.66
2022-10-28T12:45:50.039Z,20.67
2022-10-28T12:48:27.959Z,20.64
2022-10-28T12:51:05.595Z,20.67
2022-10-28T12:53:51.967Z,20.73
2022-10-28T12:56:36.074Z,20.76
2022-10-28T12:59:14.810Z,20.79
2022-10-28T13:01:45.717Z,20.82
2022-10-28T13:04:13.312Z,20.81
2022-10-28T13:07:06.063Z,20.89
2022-10-28T13:09:57.567Z,20.89
2022-10-28T13:12:47.072Z,20.90
2022-10-28T13:15:19.459Z,20.92
2022-10-28T13:18:03.235Z,20.93
2022-10-28T13:20:48.544Z,21.00
2022-10-28T13:23:19.807Z,21.01
2022-10-28T13:26:04.178Z,21.13
2022-10-28T13:28:34.951Z,21.11
2022-10-28T13:31:07.596Z,21.22
2022-10-28T13:33:37.294Z,21.17
2022-10-28T13:36:11.893Z,21.24
2022-10-28T13:38:38.680Z,21.24
2022-10-28T13:41:05.212Z,21.29
2022-10-28T13:43:50.203Z,21.31
2022-10-28T13:46:54.572Z,21.30
2022-10-28T13:49:27.105Z,21.33
2022-10-28T13:52:22.969Z,21.35
2022-10-28T13:54:49.656Z,21.34
2022-10-28T13:57:37.713Z,21.35
2022-10-28T14:03:00.567Z,21.34
2022-10-28T14:05:52.234Z,21.32
2022-10-28T14:08:29.506Z,21.31
2022-10-28T14:10:59.266Z,21.28
2022-10-28T14:13:26.584Z,21.20
2022-10-28T14:16:16.806Z,21.23
2022-10-28T14:18:53.619Z,21.21
2022-10-28T14:21:21.136Z,21.17
2022-10-28T14:24:08.040Z,21.20
2022-10-28T14:27:06.653Z,21.16
2022-10-28T14:29:50.542Z,21.12
2022-10-28T14:32:32.719Z,21.08
2022-10-28T14:35:05.621Z,21.03
2022-10-28T14:37:57.273Z,20.96
2022-10-28T14:40:38.135Z,20.97
2022-10-28T14:43:29.414Z,20.98
2022-10-28T14:46:10.220Z,20.93
2022-10-28T14:48:50.475Z,20.92
2022-10-28T14:51:24.137Z,20.92
2022-10-28T14:53:54.917Z,20.85
2022-10-28T14:56:29.757Z,20.80
2022-10-28T14:59:18.752Z,20.77
2022-10-28T15:02:04.151Z,20.80
2022-10-28T15:04:31.461Z,20.73
2022-10-28T15:06:58.819Z,20.72
2022-10-28T15:09:31.328Z,20.68
2022-10-28T15:12:02.005Z,20.72
2022-10-28T15:14:35.104Z,20.70
2022-10-28T15:17:12.366Z,20.70
2022-10-28T15:19:39.316Z,20.64
2022-10-28T15:22:15.086Z,20.56
2022-10-28T15:24:46.185Z,20.56
2022-10-28T15:27:14.207Z,20.42
2022-10-28T15:29:42.598Z,20.46
2022-10-28T15:32:30.526Z,20.39
2022-10-28T15:34:57.921Z,20.40
2022-10-28T15:37:28.559Z,20.33
2022-10-28T15:40:21.951Z,20.27
2022-10-28T15:42:57.464Z,20.15
2022-10-28T15:45:29.943Z,20.15
2022-10-28T15:47:58.367Z,20.11
2022-10-28T15:50:33.918Z,20.01
2022-10-28T15:53:09.516Z,20.04
2022-10-28T15:58:34.312Z,19.94
2022-10-28T16:01:01.123Z,19.87
2022-10-28T16:03:40.933Z,19.83
2022-10-28T16:06:27.887Z,19.80
2022-10-28T16:09:06.241Z,19.73
2022-10-28T16:11:36.397Z,19.69
2022-10-28T16:14:23.569Z,19.65
2022-10-28T16:16:50.256Z,19.52
2022-10-28T16:19:28.648Z,19.50
2022-10-28T16:21:55.692Z,19.41
2022-10-28T16:24:22.748Z,19.31
2022-10-28T16:26:49.239Z,19.19
2022-10-28T16:29:15.740Z,19.19
2022-10-28T16:31:42.482Z,19.09
2022-10-28T16:34:14.502Z,19.01
2022-10-28T16:36:40.968Z,18.99
2022-10-28T16:39:13.658Z,18.85
2022-10-28T16:41:40.933Z,18.84
2022-10-28T16:44:18.251Z,18.87
2022-10-28T16:46:44.784Z,18.70
2022-10-28T16:49:11.318Z,18.79
2022-10-28T16:51:38.251Z,18.76
2022-10-28T16:54:04.793Z,18.68
2022-10-28T16:56:31.432Z,18.69
2022-10-28T16:58:57.914Z,18.64
2022-10-28T17:01:24.547Z,18.58
2022-10-28T17:03:51.111Z,18.50
2022-10-28T17:06:17.651Z,18.42
2022-10-28T17:14:02.611Z,18.32
2022-10-28T17:16:29.118Z,18.27
2022-10-28T17:18:55.747Z,18.24
2022-10-28T17:21:22.270Z,18.15
2022-10-28T17:23:48.814Z,18.19
2022-10-28T17:26:15.493Z,18.24
2022-10-28T17:28:42.165Z,18.20
2022-10-28T17:31:09.269Z,18.12
2022-10-28T17:33:35.902Z,18.02
2022-10-28T17:36:05.186Z,17.99
2022-10-28T17:38:31.930Z,17.96
2022-10-28T17:40:58.424Z,17.99
2022-10-28T17:43:24.980Z,17.96
2022-10-28T17:45:51.788Z,17.95
2022-10-28T17:48:18.314Z,17.89
2022-10-28T17:50:45.146Z,17.83
2022-10-28T17:53:11.873Z,17.74
2022-10-28T17:55:38.535Z,17.79
2022-10-28T17:58:05.178Z,17.75
2022-10-28T18:00:31.741Z,17.62
2022-10-28T18:02:58.361Z,17.59
2022-10-28T18:05:24.972Z,17.53
2022-10-28T18:07:54.835Z,17.60
2022-10-28T18:10:21.726Z,17.38
2022-10-28T18:12:51.001Z,17.38
2022-10-28T18:15:17.506Z,17.39
2022-10-28T18:17:44.033Z,17.23
2022-10-28T18:20:11.008Z,17.23
2022-10-28T18:22:37.551Z,17.23
2022-10-28T18:25:04.369Z,17.18
2022-10-28T18:27:30.978Z,17.20
2022-10-28T18:29:57.478Z,17.18
2022-10-28T18:32:24.088Z,17.19
2022-10-28T18:34:50.710Z,17.13
2022-10-28T18:37:17.281Z,17.16
2022-10-28T18:39:43.896Z,17.07
2022-10-28T18:42:12.324Z,17.08
2022-10-28T18:44:39.321Z,17.03
2022-10-28T18:47:06.560Z,16.99
2022-10-28T18:49:33.241Z,16.92
2022-10-28T18:51:59.826Z,16.89
2022-10-28T18:54:26.448Z,16.90
2022-10-28T18:56:56.610Z,16.83
2022-10-28T18:59:24.241Z,16.84
2022-10-28T19:01:50.938Z,16.83
2022-10-28T19:04:17.699Z,16.79
2022-10-28T19:06:44.239Z,16.81
2022-10-28T19:09:10.834Z,16.80
2022-10-28T19:11:37.529Z,16.70
2022-10-28T19:14:06.117Z,16.79
2022-10-28T19:16:34.124Z,16.76
2022-10-28T19:19:02.730Z,16.63
2022-10-28T19:21:29.713Z,16.61
2022-10-28T19:23:56.608Z,16.52
2022-10-28T19:26:23.938Z,16.48
2022-10-28T19:28:51.484Z,16.58
2022-10-28T19:31:23.958Z,16.59
2022-10-28T19:33:52.550Z,16.59
2022-10-28T19:36:20.665Z,16.51
2022-10-28T19:38:49.450Z,16.48
2022-10-28T19:41:27.794Z,16.38
2022-10-28T19:43:58.211Z,16.40
2022-10-28T19:46:27.165Z,16.45
2022-10-28T19:48:55.463Z,16.46
2022-10-28T19:51:30.901Z,16.47
2022-10-28T19:53:59.948Z,16.47
2022-10-28T19:56:28.073Z,16.49
2022-10-28T19:58:57.240Z,16.47
2022-10-28T20:01:26.153Z,16.35
2022-10-28T20:03:54.101Z,16.31
2022-10-28T20:06:23.560Z,16.38
2022-10-28T20:08:50.408Z,16.36
2022-10-28T20:11:24.697Z,16.31
2022-10-28T20:13:54.783Z,16.32
2022-10-28T20:16:22.009Z,16.29
2022-10-28T20:18:48.582Z,16.30
2022-10-28T20:21:17.217Z,16.35
2022-10-28T20:23:46.205Z,16.33
2022-10-28T20:26:13.677Z,16.28
2022-10-28T20:28:40.642Z,16.23
2022-10-28T20:31:09.493Z,16.26
2022-10-28T20:33:38.016Z,16.19
2022-10-28T20:36:06.077Z,16.26
2022-10-28T20:38:32.665Z,16.23
2022-10-28T20:41:00.781Z,16.23
2022-10-28T20:43:29.279Z,16.11
2022-10-28T20:46:00.109Z,16.13
2022-10-28T20:48:30.882Z,16.15
2022-10-28T20:51:02.166Z,16.13
2022-10-28T20:53:37.581Z,16.15
2022-10-28T20:56:15.826Z,16.13
2022-10-28T20:58:42.463Z,16.05
2022-10-28T21:01:14.493Z,16.08
2022-10-28T21:03:42.247Z,16.03
2022-10-28T21:06:09.950Z,16.02
2022-10-28T21:08:36.752Z,16.08
2022-10-28T21:11:07.983Z,16.10
2022-10-28T21:13:35.171Z,16.08
2022-10-28T21:16:09.860Z,16.08
2022-10-28T21:18:38.256Z,16.06
2022-10-28T21:21:05.477Z,15.92
2022-10-28T21:23:32.142Z,15.99
2022-10-28T21:26:04.691Z,15.96
2022-10-28T21:28:32.560Z,15.98
2022-10-28T21:31:19.836Z,15.95
2022-10-28T21:33:46.827Z,15.88
2022-10-28T21:36:18.533Z,15.91
2022-10-28T21:38:45.358Z,15.86
2022-10-28T21:41:14.003Z,15.77
2022-10-28T21:43:42.555Z,15.84
2022-10-28T21:46:09.400Z,15.82
2022-10-28T21:48:37.314Z,15.77
2022-10-28T21:51:09.872Z,15.75
2022-10-28T21:53:42.578Z,15.68
2022-10-28T21:56:15.580Z,15.64
2022-10-28T21:58:44.268Z,15.65
2022-10-28T22:01:13.447Z,15.65
2022-10-28T22:03:40.933Z,15.62
2022-10-28T22:06:07.872Z,15.62
2022-10-28T22:08:34.803Z,15.58
2022-10-28T22:11:06.465Z,15.60
2022-10-28T22:13:33.913Z,15.60
2022-10-28T22:16:04.212Z,15.51
2022-10-28T22:18:33.375Z,15.53
2022-10-28T22:21:11.220Z,15.50
2022-10-28T22:23:38.323Z,15.48
2022-10-28T22:26:07.231Z,15.49
2022-10-28T22:28:34.585Z,15.41
2022-10-28T22:31:03.079Z,15.47
2022-10-28T22:33:29.702Z,15.45
2022-10-28T22:36:00.602Z,15.49
2022-10-28T22:38:27.601Z,15.45
2022-10-28T22:41:06.423Z,15.42
2022-10-28T22:43:33.858Z,15.40
2022-10-28T22:46:01.530Z,15.37
2022-10-28T22:48:28.627Z,15.28
2022-10-28T22:50:55.618Z,15.30
2022-10-28T22:53:22.859Z,15.24
2022-10-28T22:55:49.883Z,15.22
2022-10-28T22:58:16.855Z,15.14
2022-10-28T23:00:44.052Z,15.19
2022-10-28T23:03:11.423Z,15.17
2022-10-28T23:05:38.203Z,15.17
2022-10-28T23:08:04.889Z,15.16
2022-10-28T23:10:31.658Z,15.10
2022-10-28T23:12:59.761Z,15.09
2022-10-28T23:15:27.347Z,15.09
2022-10-28T23:17:54.190Z,15.04
2022-10-28T23:20:22.888Z,15.01
2022-10-28T23:22:49.591Z,14.90
2022-10-28T23:25:16.271Z,14.76
2022-10-28T23:27:43.994Z,14.83
2022-10-28T23:30:12.906Z,14.80
2022-10-28T23:32:40.315Z,14.77
2022-10-28T23:35:07.406Z,14.77
2022-10-28T23:37:34.063Z,14.77
2022-10-28T23:40:00.605Z,14.76
2022-10-28T23:42:27.120Z,14.76
2022-10-28T23:44:53.601Z,14.74
2022-10-28T23:47:20.228Z,14.64
2022-10-28T23:49:46.762Z,14.67
2022-10-28T23:52:13.366Z,14.64
2022-10-28T23:54:39.875Z,14.64
2022-10-28T23:57:06.373Z,14.61
2022-10-28T23:59:32.869Z,14.60
